Time;durP1;ratioP1;P1;durP2;ratioP2;P2;SDS_P1;SDS_P2;PMS_P1;PMS_P2;Temp;Humidity;BMP_temperature;BMP_pressure;BME280_temperature;BME280_humidity;BME280_pressure;Samples;Min_cycle;Max_cycle;Signal;HPM_P1;HPM_P2
2022/06/04 00:00:42;;;;;;;0.90;0.80;;;13.60;99.90;;;;;;5053623;28;20214;-75
2022/06/04 00:03:14;;;;;;;2.53;0.95;;;13.70;99.90;;;;;;5052018;28;20225;-75
2022/06/04 00:05:47;;;;;;;1.58;0.55;;;13.80;99.90;;;;;;5056245;28;21901;-74
2022/06/04 00:08:17;;;;;;;1.38;0.70;;;13.80;99.90;;;;;;5058076;28;20206;-75
2022/06/04 00:16:36;;;;;;;1.75;0.55;;;14.00;99.90;;;;;;5047764;28;20217;-74
2022/06/04 00:19:07;;;;;;;2.13;0.50;;;14.10;99.90;;;;;;5055653;28;20203;-75
2022/06/04 00:21:38;;;;;;;2.92;0.50;;;14.00;99.90;;;;;;5054727;28;20237;-75
2022/06/04 00:24:09;;;;;;;1.95;0.60;;;14.20;99.90;;;;;;5055981;28;20193;-75
2022/06/04 00:26:40;;;;;;;1.70;0.70;;;14.30;99.90;;;;;;5055006;28;20201;-76
2022/06/04 00:29:12;;;;;;;1.05;0.50;;;14.30;99.90;;;;;;5058597;28;20559;-75
2022/06/04 00:31:45;;;;;;;0.70;0.57;;;14.40;99.90;;;;;;5055269;28;20201;-77
2022/06/04 00:34:18;;;;;;;2.17;0.40;;;14.50;99.90;;;;;;5058015;28;20652;-74
2022/06/04 00:36:49;;;;;;;1.17;0.50;;;14.60;99.90;;;;;;5053310;28;20251;-75
2022/06/04 00:39:19;;;;;;;1.75;0.50;;;14.60;99.90;;;;;;5048336;28;20205;-75
2022/06/04 00:41:56;;;;;;;1.63;0.70;;;14.60;99.90;;;;;;5054906;28;20217;-76
2022/06/04 00:45:13;;;;;;;0.95;0.60;;;14.70;99.90;;;;;;5054502;28;20189;-75
2022/06/04 00:47:46;;;;;;;0.75;0.60;;;14.80;99.90;;;;;;5052305;28;20251;-76
2022/06/04 00:50:18;;;;;;;3.17;0.68;;;14.80;99.90;;;;;;5051835;28;20201;-77
2022/06/04 00:52:50;;;;;;;1.58;0.60;;;14.90;99.90;;;;;;5053829;28;20198;-75
2022/06/04 00:55:22;;;;;;;1.48;0.68;;;14.90;99.90;;;;;;5054496;28;20269;-75
2022/06/04 00:58:21;;;;;;;2.25;0.50;;;14.90;99.90;;;;;;5050883;28;20577;-75
2022/06/04 01:00:59;;;;;;;3.30;0.70;;;14.90;99.90;;;;;;5039316;28;20504;-75
2022/06/04 01:03:49;;;;;;;1.30;0.52;;;14.90;99.90;;;;;;5055044;28;20229;-76
2022/06/04 01:06:39;;;;;;;0.98;0.50;;;14.90;99.90;;;;;;5050976;28;20190;-75
2022/06/04 01:09:41;;;;;;;1.52;0.60;;;15.00;99.90;;;;;;5044426;28;20289;-76
2022/06/04 01:12:29;;;;;;;1.27;0.50;;;15.20;99.90;;;;;;5049896;28;20197;-74
2022/06/04 01:15:11;;;;;;;2.08;0.60;;;15.30;99.90;;;;;;5054777;28;20200;-74
2022/06/04 01:17:55;;;;;;;1.42;0.70;;;15.40;99.90;;;;;;5051325;28;20197;-76
2022/06/04 01:20:40;;;;;;;0.70;0.50;;;15.40;99.90;;;;;;5047649;28;20219;-75
2022/06/04 01:23:42;;;;;;;0.77;0.60;;;15.50;99.90;;;;;;5048294;28;20197;-75
2022/06/04 01:26:46;;;;;;;1.25;0.43;;;15.50;99.90;;;;;;5048446;28;20202;-75
2022/06/04 01:29:19;;;;;;;2.75;0.60;;;15.60;99.90;;;;;;5048240;28;20206;-76
2022/06/04 01:31:53;;;;;;;1.65;0.55;;;15.60;99.90;;;;;;5051965;28;20565;-75
2022/06/04 01:34:27;;;;;;;2.72;0.60;;;15.60;99.90;;;;;;5051697;28;20194;-75
2022/06/04 01:37:04;;;;;;;0.40;0.40;;;15.70;99.90;;;;;;5049281;28;20198;-76
2022/06/04 01:42:26;;;;;;;3.40;0.60;;;15.80;99.90;;;;;;5046728;28;20204;-75
2022/06/04 01:44:59;;;;;;;1.45;0.50;;;15.80;99.90;;;;;;5051419;28;20193;-76
2022/06/04 01:47:31;;;;;;;1.15;0.35;;;15.90;99.90;;;;;;5048889;28;20607;-74
2022/06/04 01:50:05;;;;;;;1.83;0.55;;;16.00;99.90;;;;;;5047783;28;20194;-75
2022/06/04 01:52:39;;;;;;;0.82;0.50;;;16.00;99.90;;;;;;5048955;28;20190;-75
2022/06/04 01:55:14;;;;;;;1.65;0.60;;;16.10;99.90;;;;;;5050071;28;20240;-75
2022/06/04 01:57:50;;;;;;;0.75;0.38;;;16.10;99.90;;;;;;5047573;28;20220;-74
2022/06/04 02:00:25;;;;;;;1.00;0.50;;;16.30;99.90;;;;;;5048670;28;20647;-76
2022/06/04 02:03:04;;;;;;;2.45;0.40;;;16.30;99.90;;;;;;5045653;28;20221;-76
2022/06/04 02:05:40;;;;;;;1.38;0.40;;;16.20;99.90;;;;;;5046014;28;20632;-76
2022/06/04 02:08:16;;;;;;;1.17;0.32;;;16.20;99.90;;;;;;5046162;28;20202;-79
2022/06/04 02:10:52;;;;;;;3.03;0.47;;;16.30;99.90;;;;;;5049171;28;20213;-76
2022/06/04 02:13:24;;;;;;;0.65;0.40;;;16.40;99.90;;;;;;5043550;28;20194;-75
2022/06/04 02:15:58;;;;;;;2.03;0.30;;;16.60;99.90;;;;;;5045731;28;20205;-75
2022/06/04 02:18:29;;;;;;;0.57;0.30;;;16.60;99.90;;;;;;5049658;28;20254;-76
2022/06/04 02:21:00;;;;;;;0.30;0.30;;;16.60;99.90;;;;;;5049663;28;20222;-76
2022/06/04 02:23:31;;;;;;;1.13;0.38;;;16.60;99.90;;;;;;5047620;28;20199;-75
2022/06/04 02:26:02;;;;;;;2.90;0.30;;;16.60;99.90;;;;;;5051803;28;20589;-76
2022/06/04 02:28:36;;;;;;;0.85;0.50;;;16.60;99.90;;;;;;5048545;28;20200;-76
2022/06/04 02:31:17;;;;;;;0.68;0.40;;;16.60;99.90;;;;;;5043446;28;20237;-79
2022/06/04 02:33:56;;;;;;;1.30;0.30;;;16.70;99.90;;;;;;5042229;28;20194;-75
2022/06/04 02:36:33;;;;;;;1.27;0.45;;;16.70;99.90;;;;;;5045120;28;20277;-76
2022/06/04 02:39:12;;;;;;;1.45;0.40;;;16.70;99.90;;;;;;5047130;28;20189;-75
2022/06/04 02:41:49;;;;;;;0.90;0.40;;;16.70;99.90;;;;;;5052319;28;20220;-75
2022/06/04 02:44:28;;;;;;;1.38;0.50;;;16.70;99.90;;;;;;5048739;28;20187;-79
2022/06/04 02:47:06;;;;;;;0.65;0.40;;;16.70;99.90;;;;;;5045741;28;20212;-75
2022/06/04 02:49:42;;;;;;;0.63;0.30;;;16.80;99.90;;;;;;5049911;28;20241;-77
2022/06/04 02:52:16;;;;;;;1.20;0.40;;;16.90;99.90;;;;;;5044896;28;20613;-78
2022/06/04 02:54:52;;;;;;;1.20;0.50;;;17.10;99.90;;;;;;5044468;28;20680;-77
2022/06/04 02:57:24;;;;;;;1.15;0.25;;;17.20;99.90;;;;;;5041324;28;20190;-77
2022/06/04 02:59:57;;;;;;;1.38;0.50;;;17.20;99.90;;;;;;5044623;28;20259;-76
2022/06/04 03:02:32;;;;;;;0.45;0.30;;;17.20;99.90;;;;;;5043790;28;20240;-77
2022/06/04 03:05:09;;;;;;;0.60;0.52;;;17.20;99.90;;;;;;5049770;28;20259;-78
2022/06/04 03:07:43;;;;;;;1.23;0.45;;;17.20;99.90;;;;;;5044849;28;20198;-77
2022/06/04 03:10:17;;;;;;;2.83;0.47;;;17.30;99.90;;;;;;5046100;28;20193;-81
2022/06/04 03:12:47;;;;;;;0.52;0.30;;;17.30;99.90;;;;;;5047164;28;20205;-77
2022/06/04 03:15:20;;;;;;;1.58;0.40;;;17.20;99.90;;;;;;5044565;28;20229;-77
2022/06/04 03:17:51;;;;;;;1.30;0.40;;;17.20;99.90;;;;;;5043251;28;20656;-75
2022/06/04 03:20:24;;;;;;;1.13;0.30;;;17.10;99.90;;;;;;5043778;28;20193;-76
2022/06/04 03:22:55;;;;;;;1.70;0.40;;;17.10;99.90;;;;;;5048107;28;20230;-76
2022/06/04 03:25:26;;;;;;;1.90;0.68;;;17.10;99.90;;;;;;5047964;28;20205;-76
2022/06/04 03:27:57;;;;;;;1.45;0.40;;;17.20;99.90;;;;;;5046006;28;20216;-76
2022/06/04 03:30:30;;;;;;;2.00;0.40;;;17.20;99.90;;;;;;5051521;28;20201;-76
2022/06/04 03:33:00;;;;;;;0.98;0.40;;;17.20;99.90;;;;;;5050813;28;20193;-77
2022/06/04 03:35:31;;;;;;;2.25;0.30;;;17.20;99.90;;;;;;5049753;28;20212;-76
2022/06/04 03:38:02;;;;;;;0.55;0.40;;;17.20;99.90;;;;;;5051463;28;20201;-76
2022/06/04 03:40:33;;;;;;;0.90;0.43;;;17.20;99.90;;;;;;5054924;28;20213;-77
2022/06/04 03:43:04;;;;;;;1.95;0.40;;;17.20;99.90;;;;;;5050689;28;20197;-74
2022/06/04 03:45:37;;;;;;;1.05;0.50;;;17.30;99.90;;;;;;5046683;28;20202;-77
2022/06/04 03:48:08;;;;;;;1.48;0.30;;;17.30;99.90;;;;;;5050666;28;20703;-78
2022/06/04 03:50:38;;;;;;;2.15;0.40;;;17.20;99.90;;;;;;5050115;28;20212;-77
2022/06/04 03:53:09;;;;;;;0.63;0.50;;;17.20;99.90;;;;;;5052807;28;20236;-75
2022/06/04 03:55:40;;;;;;;0.65;0.30;;;17.30;99.90;;;;;;5048947;28;20218;-76
2022/06/04 03:58:11;;;;;;;0.93;0.40;;;17.30;99.90;;;;;;5052516;28;20198;-75
2022/06/04 04:00:45;;;;;;;0.88;0.30;;;17.30;99.90;;;;;;5049277;28;20251;-75
2022/06/04 04:03:19;;;;;;;0.82;0.30;;;17.30;99.90;;;;;;5048790;28;20225;-76
2022/06/04 04:05:50;;;;;;;0.98;0.30;;;17.20;99.90;;;;;;5049116;28;20209;-75
2022/06/04 04:08:26;;;;;;;1.98;0.40;;;17.20;99.90;;;;;;5047507;28;20197;-76
2022/06/04 04:10:56;;;;;;;2.47;0.30;;;17.20;99.90;;;;;;5050448;28;20209;-77
2022/06/04 04:13:27;;;;;;;0.50;0.30;;;17.20;99.90;;;;;;5047650;28;20193;-75
2022/06/04 04:15:59;;;;;;;0.80;0.30;;;17.20;99.90;;;;;;5047069;28;20216;-76
2022/06/04 04:18:30;;;;;;;1.73;0.32;;;17.20;99.90;;;;;;5050266;28;20198;-78
2022/06/04 04:21:05;;;;;;;0.82;0.38;;;17.20;99.90;;;;;;5041478;28;20194;-76
2022/06/04 04:23:36;;;;;;;0.85;0.30;;;17.30;99.90;;;;;;5047463;28;20201;-77
2022/06/04 04:26:08;;;;;;;0.57;0.30;;;17.30;99.90;;;;;;5046625;28;20251;-78
2022/06/04 04:28:39;;;;;;;2.53;0.50;;;17.30;99.90;;;;;;5049550;28;20199;-78
2022/06/04 04:31:17;;;;;;;0.50;0.50;;;17.30;99.90;;;;;;5046812;28;20198;-77
2022/06/04 04:33:47;;;;;;;0.93;0.40;;;17.30;99.90;;;;;;5052529;28;20201;-76
2022/06/04 04:36:18;;;;;;;0.57;0.40;;;17.30;99.90;;;;;;5050774;28;20236;-77
2022/06/04 04:38:49;;;;;;;0.68;0.32;;;17.30;99.90;;;;;;5047172;28;20201;-75
2022/06/04 04:41:19;;;;;;;41.20;21.80;;;17.30;99.90;;;;;;5051442;28;20201;-76
2022/06/04 04:43:51;;;;;;;38.67;22.48;;;17.30;99.90;;;;;;5053688;28;20201;-75
2022/06/04 04:46:23;;;;;;;6.88;4.68;;;17.30;99.90;;;;;;5048497;28;20938;-79
2022/06/04 04:48:55;;;;;;;1.80;0.73;;;17.30;99.90;;;;;;5047651;28;20194;-74
2022/06/04 04:51:28;;;;;;;1.90;0.80;;;17.30;99.90;;;;;;5050425;28;20212;-80
2022/06/04 04:53:58;;;;;;;3.50;1.33;;;17.20;99.90;;;;;;5046601;28;20203;-77
2022/06/04 04:56:29;;;;;;;2.40;1.10;;;17.20;99.90;;;;;;5051399;28;20198;-81
2022/06/04 04:59:00;;;;;;;1.95;0.40;;;17.20;99.90;;;;;;5049902;28;20198;-75
2022/06/04 05:01:33;;;;;;;0.55;0.40;;;17.20;99.90;;;;;;5052622;28;20213;-76
2022/06/04 05:04:03;;;;;;;0.90;0.55;;;17.20;99.90;;;;;;5048681;28;20597;-76
2022/06/04 05:06:35;;;;;;;0.50;0.38;;;17.20;99.90;;;;;;5048424;28;20664;-76
2022/06/04 05:09:06;;;;;;;1.55;0.40;;;17.20;99.90;;;;;;5049820;28;20185;-76
2022/06/04 05:11:36;;;;;;;1.20;0.40;;;17.20;99.90;;;;;;5049099;28;20232;-76
2022/06/04 05:14:07;;;;;;;0.60;0.30;;;17.20;99.90;;;;;;5055225;28;20624;-75
2022/06/04 05:16:42;;;;;;;0.32;0.32;;;17.20;99.90;;;;;;5050482;28;20189;-76
2022/06/04 05:19:13;;;;;;;0.68;0.32;;;17.20;99.90;;;;;;5049958;28;20200;-78
2022/06/04 05:21:46;;;;;;;0.50;0.30;;;17.20;99.90;;;;;;5052921;28;20232;-74
2022/06/04 05:24:20;;;;;;;1.38;0.40;;;17.20;99.90;;;;;;5056289;28;20198;-77
2022/06/04 05:26:51;;;;;;;1.38;0.55;;;17.10;99.90;;;;;;5049646;28;20198;-76
2022/06/04 05:29:22;;;;;;;0.73;0.38;;;17.10;99.90;;;;;;5048635;28;20225;-76
2022/06/04 05:31:56;;;;;;;1.85;0.40;;;17.10;99.90;;;;;;5043906;28;20194;-76
2022/06/04 05:34:26;;;;;;;0.88;0.50;;;17.00;99.90;;;;;;5049112;28;20267;-79
2022/06/04 05:36:57;;;;;;;0.90;0.43;;;17.00;99.90;;;;;;5046098;28;20201;-77
2022/06/04 05:39:29;;;;;;;1.35;0.32;;;17.00;99.90;;;;;;5051825;28;20197;-78
2022/06/04 05:42:00;;;;;;;3.05;0.60;;;17.00;99.90;;;;;;5047749;28;20253;-76
2022/06/04 05:44:31;;;;;;;2.28;0.47;;;16.90;99.90;;;;;;5046419;28;20204;-78
2022/06/04 05:47:04;;;;;;;0.43;0.40;;;16.90;99.90;;;;;;5052219;28;20205;-76
2022/06/04 05:49:35;;;;;;;2.60;0.57;;;16.90;99.90;;;;;;5049831;28;20209;-77
2022/06/04 05:52:06;;;;;;;0.38;0.38;;;16.90;99.90;;;;;;5046482;28;20205;-77
2022/06/04 05:54:36;;;;;;;1.23;0.82;;;16.80;99.90;;;;;;5063220;28;20202;-75
2022/06/04 05:57:07;;;;;;;1.23;0.50;;;16.80;99.90;;;;;;5054209;28;20197;-76
2022/06/04 05:59:38;;;;;;;1.08;0.70;;;16.80;99.90;;;;;;5058847;28;20197;-77
2022/06/04 06:02:12;;;;;;;0.30;0.30;;;16.70;99.90;;;;;;5051528;28;20238;-77
2022/06/04 06:04:42;;;;;;;0.68;0.30;;;16.70;99.90;;;;;;5050801;28;20233;-76
2022/06/04 06:07:13;;;;;;;1.10;0.43;;;16.70;99.90;;;;;;5053625;28;20254;-76
2022/06/04 06:09:44;;;;;;;0.75;0.40;;;16.70;99.90;;;;;;5050723;28;20661;-77
2022/06/04 06:12:15;;;;;;;1.00;0.60;;;16.70;99.90;;;;;;5054917;28;20215;-77
2022/06/04 06:14:46;;;;;;;0.88;0.60;;;16.60;99.90;;;;;;5051570;28;20220;-77
2022/06/04 06:17:19;;;;;;;1.23;0.60;;;16.60;99.90;;;;;;5052794;28;20194;-76
2022/06/04 06:19:49;;;;;;;2.25;0.68;;;16.50;99.90;;;;;;5053467;28;20636;-77
2022/06/04 06:22:20;;;;;;;1.52;0.60;;;16.40;99.90;;;;;;5049984;28;20217;-77
2022/06/04 06:24:50;;;;;;;2.10;1.02;;;16.30;99.90;;;;;;5053018;28;20190;-77
2022/06/04 06:27:21;;;;;;;1.42;0.70;;;16.30;99.90;;;;;;5045971;28;20189;-76
2022/06/04 06:29:52;;;;;;;1.65;0.80;;;16.20;99.90;;;;;;5045465;28;20295;-77
2022/06/04 06:32:24;;;;;;;2.65;1.23;;;16.20;99.90;;;;;;5049544;28;21038;-75
2022/06/04 06:34:55;;;;;;;1.63;1.15;;;16.10;99.90;;;;;;5050034;28;20280;-77
2022/06/04 06:37:26;;;;;;;1.58;0.60;;;16.10;99.90;;;;;;5052481;28;20212;-77
2022/06/04 06:39:56;;;;;;;1.30;0.70;;;16.00;99.90;;;;;;5049291;28;20658;-76
2022/06/04 06:42:27;;;;;;;0.98;0.63;;;15.90;99.90;;;;;;5051758;28;20610;-79
2022/06/04 06:44:58;;;;;;;1.60;0.80;;;15.80;99.90;;;;;;5048068;28;20192;-78
2022/06/04 06:47:30;;;;;;;1.45;0.88;;;15.70;99.90;;;;;;5052254;28;20604;-77
2022/06/04 06:50:02;;;;;;;3.40;1.17;;;15.60;99.90;;;;;;5050044;28;20212;-77
2022/06/04 06:52:32;;;;;;;3.78;1.10;;;15.50;99.90;;;;;;5051413;28;20569;-78
2022/06/04 06:55:03;;;;;;;1.95;0.88;;;15.40;99.90;;;;;;5048418;28;20194;-77
2022/06/04 06:57:34;;;;;;;1.45;0.82;;;15.30;99.90;;;;;;5050424;28;20209;-76
2022/06/04 07:00:05;;;;;;;0.60;0.57;;;15.30;99.90;;;;;;5051769;28;20640;-76
2022/06/04 07:02:37;;;;;;;1.80;0.80;;;15.20;99.90;;;;;;5047522;28;20273;-76
2022/06/04 07:05:09;;;;;;;1.48;0.70;;;15.10;99.90;;;;;;5050226;28;20232;-77
2022/06/04 07:07:40;;;;;;;1.27;0.80;;;15.10;99.90;;;;;;5052114;28;20194;-76
2022/06/04 07:10:14;;;;;;;1.23;0.80;;;15.00;99.90;;;;;;5057151;28;20594;-77
2022/06/04 07:12:45;;;;;;;2.38;0.70;;;14.90;99.90;;;;;;5039726;28;20220;-78
2022/06/04 07:15:16;;;;;;;1.75;0.60;;;14.80;99.90;;;;;;5052493;28;20254;-76
2022/06/04 07:17:49;;;;;;;1.00;0.70;;;14.70;99.90;;;;;;5044685;28;20661;-77
2022/06/04 07:20:20;;;;;;;0.80;0.80;;;14.70;99.90;;;;;;5049840;28;20257;-77
2022/06/04 07:22:52;;;;;;;0.88;0.80;;;14.60;99.90;;;;;;5044418;28;20244;-77
2022/06/04 07:25:23;;;;;;;1.05;0.85;;;14.60;99.90;;;;;;5055308;28;20224;-76
2022/06/04 07:27:54;;;;;;;1.63;0.88;;;14.50;99.90;;;;;;5051886;28;20675;-77
2022/06/04 07:30:24;;;;;;;3.72;0.88;;;14.50;99.90;;;;;;5049822;28;20198;-77
2022/06/04 07:32:58;;;;;;;2.10;1.00;;;14.40;99.90;;;;;;5057480;28;20235;-77
2022/06/04 07:35:29;;;;;;;2.60;1.00;;;14.30;99.90;;;;;;5051743;28;20193;-77
2022/06/04 07:38:00;;;;;;;1.63;0.98;;;14.20;99.90;;;;;;5049532;28;20201;-76
2022/06/04 07:40:30;;;;;;;1.67;1.08;;;14.10;99.90;;;;;;5049600;28;20190;-78
2022/06/04 07:43:01;;;;;;;2.38;1.10;;;14.00;99.90;;;;;;5057757;28;20213;-77
2022/06/04 07:45:32;;;;;;;2.42;1.10;;;13.90;99.90;;;;;;5047299;28;20190;-79
2022/06/04 07:48:05;;;;;;;1.70;1.05;;;13.80;99.90;;;;;;5051509;28;20676;-77
2022/06/04 07:50:36;;;;;;;2.08;1.05;;;13.70;99.90;;;;;;5054682;28;20656;-77
2022/06/04 07:53:07;;;;;;;2.25;1.40;;;13.70;99.90;;;;;;5043229;28;20302;-76
2022/06/04 07:55:42;;;;;;;3.38;1.60;;;13.60;99.90;;;;;;5047796;28;20660;-79
2022/06/04 07:58:13;;;;;;;2.67;1.38;;;13.60;99.90;;;;;;5052279;28;20197;-78
2022/06/04 08:00:43;;;;;;;4.15;1.48;;;13.60;99.90;;;;;;5045906;28;20200;-77
2022/06/04 08:03:16;;;;;;;3.33;1.70;;;13.60;99.90;;;;;;5048608;28;20229;-80
2022/06/04 08:05:46;;;;;;;2.55;1.63;;;13.50;99.90;;;;;;5053031;28;20206;-77
2022/06/04 08:08:17;;;;;;;24.75;12.90;;;13.40;99.90;;;;;;5055424;28;20283;-78
2022/06/04 08:10:49;;;;;;;48.05;25.88;;;13.40;99.90;;;;;;5052435;28;20445;-77
2022/06/04 08:13:23;;;;;;;5.38;2.58;;;13.40;99.90;;;;;;5057980;28;20205;-76
2022/06/04 08:15:55;;;;;;;2.72;1.73;;;13.30;99.90;;;;;;5055831;28;20198;-77
2022/06/04 08:18:28;;;;;;;2.67;1.75;;;13.20;99.90;;;;;;5055447;28;20204;-78
2022/06/04 08:20:59;;;;;;;34.20;18.17;;;13.20;99.90;;;;;;5053519;28;21847;-78
2022/06/04 08:23:29;;;;;;;19.50;9.30;;;13.10;99.90;;;;;;5052427;28;20608;-76
2022/06/04 08:26:00;;;;;;;10.75;6.20;;;13.10;99.90;;;;;;5053951;28;20224;-77
2022/06/04 08:28:31;;;;;;;11.65;6.53;;;13.00;99.90;;;;;;5051896;28;20209;-77
2022/06/04 08:31:04;;;;;;;10.85;6.07;;;13.00;99.90;;;;;;5052026;28;20209;-81
2022/06/04 08:33:38;;;;;;;7.47;4.18;;;13.00;99.90;;;;;;5051349;28;20225;-79
2022/06/04 08:36:10;;;;;;;3.33;1.80;;;13.00;99.90;;;;;;5052688;28;20225;-76
2022/06/04 08:38:40;;;;;;;5.70;3.17;;;13.00;99.90;;;;;;5053605;28;20202;-76
2022/06/04 08:41:21;;;;;;;7.88;4.22;;;13.00;99.90;;;;;;5048220;28;20193;-76
2022/06/04 08:43:58;;;;;;;6.70;3.88;;;12.90;99.90;;;;;;5050979;28;20220;-77
2022/06/04 08:46:34;;;;;;;4.75;2.30;;;13.00;99.90;;;;;;5050654;28;20276;-76
2022/06/04 08:49:15;;;;;;;3.70;1.90;;;12.90;99.90;;;;;;5053746;28;20275;-77
2022/06/04 08:51:47;;;;;;;3.25;1.90;;;12.90;99.90;;;;;;5050639;28;20675;-78
2022/06/04 09:00:12;;;;;;;3.05;1.73;;;12.70;99.90;;;;;;5036036;28;20198;-76
2022/06/04 09:02:59;;;;;;;3.63;1.92;;;12.70;99.90;;;;;;5049364;28;20615;-76
2022/06/04 09:05:50;;;;;;;2.05;1.60;;;12.60;99.90;;;;;;5047989;28;20719;-76
2022/06/04 09:08:27;;;;;;;4.05;1.95;;;12.60;99.90;;;;;;5050605;28;20197;-76
2022/06/04 09:11:01;;;;;;;3.25;1.80;;;12.50;99.90;;;;;;5056652;28;20649;-76
2022/06/04 09:13:36;;;;;;;4.70;2.10;;;12.50;99.90;;;;;;5047847;28;20210;-76
2022/06/04 09:16:17;;;;;;;5.57;2.78;;;12.50;99.90;;;;;;5050124;28;20200;-75
2022/06/04 09:18:53;;;;;;;4.65;2.55;;;12.50;99.90;;;;;;5052177;28;20193;-77
2022/06/04 09:21:29;;;;;;;6.05;2.50;;;12.50;99.90;;;;;;5049207;28;20303;-76
2022/06/04 09:23:59;;;;;;;4.10;2.03;;;12.50;99.90;;;;;;5045957;28;20286;-76
2022/06/04 09:26:34;;;;;;;4.50;2.53;;;12.50;99.90;;;;;;5053751;28;20200;-76
2022/06/04 09:29:29;;;;;;;3.30;2.30;;;12.50;99.90;;;;;;5051455;28;20614;-76
2022/06/04 09:32:06;;;;;;;3.15;2.03;;;12.60;99.90;;;;;;5046558;28;20209;-76
2022/06/04 09:34:40;;;;;;;3.30;2.00;;;12.60;99.90;;;;;;5052970;28;20201;-76
2022/06/04 09:37:13;;;;;;;3.95;2.10;;;12.50;99.90;;;;;;5050089;28;20198;-76
2022/06/04 09:39:47;;;;;;;4.20;2.15;;;12.50;99.90;;;;;;5059243;28;20201;-75
2022/06/04 09:42:31;;;;;;;3.38;2.28;;;12.50;99.90;;;;;;5053446;28;20202;-74
2022/06/04 09:45:03;;;;;;;2.80;1.88;;;12.40;99.90;;;;;;5049062;28;20668;-77
2022/06/04 09:47:38;;;;;;;3.08;2.50;;;12.40;99.90;;;;;;5052683;28;20664;-76
2022/06/04 09:50:20;;;;;;;152.17;78.00;;;12.30;99.90;;;;;;5052396;28;20440;-75
2022/06/04 09:53:03;;;;;;;9.20;5.63;;;12.30;99.90;;;;;;5051085;28;20205;-76
2022/06/04 09:55:36;;;;;;;8.75;3.95;;;12.10;99.90;;;;;;5055653;28;20197;-75
2022/06/04 09:58:09;;;;;;;4.40;2.50;;;12.10;99.90;;;;;;5049782;28;20217;-75
2022/06/04 10:00:42;;;;;;;4.03;2.47;;;12.10;99.90;;;;;;5048978;28;20206;-77
2022/06/04 10:03:17;;;;;;;3.25;2.30;;;12.10;99.90;;;;;;5051219;28;20244;-75
2022/06/04 10:05:53;;;;;;;3.03;2.05;;;12.10;99.90;;;;;;5052971;28;20247;-75
2022/06/04 10:08:29;;;;;;;4.07;2.45;;;12.10;99.90;;;;;;5051411;28;20208;-76
2022/06/04 10:11:05;;;;;;;3.17;2.17;;;12.00;99.90;;;;;;5051870;28;20676;-75
2022/06/04 10:13:48;;;;;;;5.22;2.47;;;12.00;99.90;;;;;;5047910;28;20606;-76
2022/06/04 10:16:21;;;;;;;4.15;2.13;;;12.00;99.90;;;;;;5050274;28;20215;-76
2022/06/04 10:19:00;;;;;;;4.50;2.47;;;11.90;99.90;;;;;;5049541;28;20676;-75
2022/06/04 10:21:35;;;;;;;3.60;2.70;;;11.90;99.90;;;;;;5051832;28;20197;-76
2022/06/04 10:24:22;;;;;;;4.38;2.85;;;11.80;99.90;;;;;;5050756;28;20279;-76
2022/06/04 10:27:01;;;;;;;4.38;2.88;;;11.80;99.90;;;;;;5051121;28;20201;-76
2022/06/04 10:30:02;;;;;;;4.47;3.25;;;11.70;99.90;;;;;;5045500;28;20544;-76
2022/06/04 10:32:46;;;;;;;5.18;3.33;;;11.70;99.90;;;;;;5050444;28;20204;-76
2022/06/04 10:35:23;;;;;;;5.85;3.50;;;11.50;99.90;;;;;;5048492;28;20653;-77
2022/06/04 10:38:11;;;;;;;4.45;3.15;;;11.50;99.90;;;;;;5054531;28;20598;-77
2022/06/04 10:40:58;;;;;;;4.03;3.00;;;11.50;99.90;;;;;;5045218;28;20194;-76
2022/06/04 10:43:57;;;;;;;4.97;3.30;;;11.50;99.90;;;;;;5054053;28;20217;-77
2022/06/04 10:46:34;;;;;;;5.95;3.42;;;11.40;99.90;;;;;;5037435;28;20202;-76
2022/06/04 10:49:19;;;;;;;6.18;3.45;;;11.40;99.90;;;;;;5052544;28;20649;-76
2022/06/04 10:51:57;;;;;;;5.20;3.33;;;11.30;99.90;;;;;;5051447;28;20607;-76
2022/06/04 10:54:35;;;;;;;5.78;3.45;;;11.30;99.90;;;;;;5054843;28;20564;-77
2022/06/04 10:57:21;;;;;;;5.22;3.22;;;11.30;99.90;;;;;;5051053;28;20189;-76
2022/06/04 11:00:00;;;;;;;5.65;3.40;;;11.20;99.90;;;;;;5041949;28;20202;-76
2022/06/04 11:02:38;;;;;;;6.38;3.33;;;11.20;99.90;;;;;;5044033;28;20213;-76
2022/06/04 11:05:14;;;;;;;5.95;3.63;;;11.20;99.90;;;;;;5053367;28;20248;-76
2022/06/04 11:07:53;;;;;;;5.68;3.10;;;11.10;99.90;;;;;;5052382;28;20200;-76
2022/06/04 11:10:27;;;;;;;4.05;2.78;;;11.10;99.90;;;;;;5039864;28;20199;-76
2022/06/04 11:13:06;;;;;;;6.55;3.50;;;11.10;99.90;;;;;;5049050;28;20259;-78
2022/06/04 11:15:41;;;;;;;3.75;3.00;;;11.20;99.90;;;;;;5042559;28;20229;-76
2022/06/04 11:18:18;;;;;;;7.43;3.50;;;11.10;99.90;;;;;;5051584;28;20197;-77
2022/06/04 11:20:55;;;;;;;4.75;3.20;;;11.10;99.90;;;;;;5042934;28;20230;-76
2022/06/04 11:23:42;;;;;;;5.85;3.47;;;11.00;99.90;;;;;;5049918;28;20267;-76
2022/06/04 11:26:20;;;;;;;5.55;3.05;;;10.90;99.90;;;;;;5047334;28;20229;-76
2022/06/04 11:28:53;;;;;;;5.70;3.30;;;10.90;99.90;;;;;;5050964;28;20197;-76
2022/06/04 11:31:43;;;;;;;4.55;3.15;;;10.90;99.90;;;;;;5049950;28;20664;-76
2022/06/04 11:34:37;;;;;;;5.32;2.83;;;10.90;99.90;;;;;;5054332;28;20203;-76
2022/06/04 11:37:18;;;;;;;3.50;2.70;;;10.90;99.90;;;;;;5038185;28;20672;-76
2022/06/04 11:40:18;;;;;;;4.20;2.40;;;11.00;99.90;;;;;;5049347;28;20193;-76
2022/06/04 11:42:58;;;;;;;2.85;1.98;;;11.00;99.90;;;;;;5053082;28;20190;-76
2022/06/04 11:45:42;;;;;;;4.03;2.28;;;11.10;99.90;;;;;;5053360;28;20308;-76
2022/06/04 11:48:34;;;;;;;3.55;2.47;;;11.10;99.90;;;;;;5047919;28;20190;-76
2022/06/04 11:51:14;;;;;;;3.10;2.00;;;11.10;99.90;;;;;;5053231;28;20199;-76
2022/06/04 11:53:51;;;;;;;2.58;1.75;;;11.10;99.90;;;;;;5044755;28;20190;-76
2022/06/04 11:56:30;;;;;;;3.15;2.10;;;11.10;99.90;;;;;;5049976;28;20698;-76
2022/06/04 11:59:16;;;;;;;3.70;1.80;;;11.10;99.90;;;;;;5051634;28;20200;-76
2022/06/04 12:01:53;;;;;;;2.55;1.58;;;11.20;99.90;;;;;;5052200;28;20689;-78
2022/06/04 12:04:29;;;;;;;2.17;1.50;;;11.10;99.90;;;;;;5052340;28;20237;-77
2022/06/04 12:07:08;;;;;;;2.38;1.60;;;11.10;99.90;;;;;;5053531;28;20197;-76
2022/06/04 12:09:45;;;;;;;2.53;1.83;;;11.10;99.90;;;;;;5053708;28;20197;-76
2022/06/04 12:12:23;;;;;;;3.13;1.70;;;11.20;99.90;;;;;;5055797;28;20280;-76
2022/06/04 12:14:59;;;;;;;3.53;1.70;;;11.20;99.90;;;;;;5049476;28;20266;-78
2022/06/04 12:17:40;;;;;;;2.28;1.80;;;11.20;99.90;;;;;;5054595;28;20637;-77
2022/06/04 12:26:26;;;;;;;3.28;1.67;;;11.10;99.90;;;;;;5050393;28;20666;-76
2022/06/04 12:28:58;;;;;;;2.90;1.80;;;11.10;99.90;;;;;;5049978;28;20208;-77
2022/06/04 12:31:37;;;;;;;2.97;1.80;;;11.10;99.90;;;;;;5048032;28;20202;-76
2022/06/04 12:34:28;;;;;;;2.85;1.67;;;11.00;99.90;;;;;;5053558;28;20700;-77
2022/06/04 12:37:00;;;;;;;2.60;1.80;;;11.00;99.90;;;;;;5048027;28;20236;-76
2022/06/04 12:39:33;;;;;;;3.22;1.73;;;10.90;99.90;;;;;;5050233;28;20201;-76
2022/06/04 12:42:12;;;;;;;3.22;1.70;;;10.90;99.90;;;;;;5052155;28;20221;-76
2022/06/04 12:44:56;;;;;;;1.75;1.42;;;10.80;99.90;;;;;;5055834;28;20234;-77
2022/06/04 12:47:28;;;;;;;2.88;1.75;;;10.70;99.90;;;;;;5048233;28;20719;-77
2022/06/04 12:50:06;;;;;;;3.63;1.60;;;10.80;99.90;;;;;;5046976;28;20197;-76
2022/06/04 12:52:46;;;;;;;1.85;1.48;;;10.70;99.90;;;;;;5050750;28;20208;-76
2022/06/04 12:55:25;;;;;;;2.10;1.50;;;10.80;99.90;;;;;;5050303;28;20221;-76
2022/06/04 12:57:58;;;;;;;2.53;1.70;;;10.80;99.90;;;;;;5050572;28;20570;-76
2022/06/04 13:00:39;;;;;;;3.15;1.60;;;10.70;99.90;;;;;;5051053;28;20204;-76
2022/06/04 13:03:34;;;;;;;2.88;1.58;;;10.80;99.90;;;;;;5050139;28;20217;-76
2022/06/04 13:06:24;;;;;;;2.90;1.50;;;10.70;99.90;;;;;;5037254;28;20200;-76
2022/06/04 13:09:06;;;;;;;3.33;1.52;;;10.80;99.90;;;;;;5048426;28;20200;-76
2022/06/04 13:11:47;;;;;;;2.30;1.42;;;10.80;99.90;;;;;;5047175;28;20205;-76
2022/06/04 13:14:35;;;;;;;2.40;1.50;;;10.70;99.90;;;;;;5047008;28;20196;-76
2022/06/04 13:17:21;;;;;;;3.78;1.50;;;10.70;99.90;;;;;;5043517;28;20206;-77
2022/06/04 13:20:24;;;;;;;2.13;1.63;;;10.70;99.90;;;;;;5048938;28;20198;-76
2022/06/04 13:22:58;;;;;;;3.60;1.90;;;10.50;99.90;;;;;;5046719;28;20194;-77
2022/06/04 13:25:35;;;;;;;4.82;2.08;;;10.50;99.90;;;;;;5048388;28;20213;-76
2022/06/04 13:28:06;;;;;;;4.32;2.63;;;10.50;99.90;;;;;;5048384;28;20208;-77
2022/06/04 13:30:37;;;;;;;5.95;3.72;;;10.50;99.90;;;;;;5045428;28;20688;-76
2022/06/04 13:33:14;;;;;;;8.93;4.38;;;10.40;99.90;;;;;;5048001;28;20196;-76
2022/06/04 13:35:47;;;;;;;8.70;5.20;;;10.40;99.90;;;;;;5045929;28;20209;-76
2022/06/04 13:38:28;;;;;;;9.27;5.60;;;10.40;99.90;;;;;;5045491;28;20196;-76
2022/06/04 13:41:04;;;;;;;9.15;6.22;;;10.40;99.90;;;;;;5046032;28;20273;-78
2022/06/04 13:43:42;;;;;;;8.82;5.97;;;10.40;99.90;;;;;;5048821;28;20208;-77
2022/06/04 13:46:19;;;;;;;8.02;5.57;;;10.40;99.90;;;;;;5047026;28;20201;-76
2022/06/04 13:48:59;;;;;;;8.80;5.65;;;10.30;99.90;;;;;;5051891;28;20664;-77